createdAt,value
2019-04-03T00:01:10.418Z,100486.38
2019-04-03T00:03:43.180Z,100482.84
2019-04-03T00:06:16.069Z,100481.92
2019-04-03T00:08:49.132Z,100486.70
2019-04-03T00:11:21.901Z,100479.69
2019-04-03T00:13:54.776Z,100490.19
2019-04-03T00:16:27.623Z,100486.62
2019-04-03T00:19:00.468Z,100491.03
2019-04-03T00:21:33.305Z,100486.21
2019-04-03T00:24:06.152Z,100479.17
2019-04-03T00:26:39.082Z,100480.93
2019-04-03T00:29:11.985Z,100480.87
2019-04-03T00:31:45.014Z,100474.31
2019-04-03T00:34:17.948Z,100475.14
2019-04-03T00:36:52.926Z,100476.00
2019-04-03T00:39:25.490Z,100477.72
2019-04-03T00:41:58.296Z,100477.71
2019-04-03T00:44:31.205Z,100477.65
2019-04-03T00:47:04.004Z,100477.20
2019-04-03T00:49:37.098Z,100476.30
2019-04-03T00:52:10.121Z,100474.89
2019-04-03T00:54:43.935Z,100473.55
2019-04-03T00:57:16.705Z,100474.82
2019-04-03T00:59:49.555Z,100473.48
2019-04-03T01:02:22.401Z,100476.05
2019-04-03T01:04:56.503Z,100477.76
2019-04-03T01:07:29.847Z,100472.90
2019-04-03T01:10:03.220Z,100470.64
2019-04-03T01:12:36.659Z,100465.36
2019-04-03T01:15:10.827Z,100457.48
2019-04-03T01:17:45.281Z,100453.95
2019-04-03T01:20:18.536Z,100454.35
2019-04-03T01:22:51.802Z,100456.53
2019-04-03T01:25:24.805Z,100457.41
2019-04-03T01:27:57.635Z,100453.01
2019-04-03T01:30:30.596Z,100447.30
2019-04-03T01:33:04.862Z,100445.53
2019-04-03T01:35:37.622Z,100445.50
2019-04-03T01:38:10.802Z,100442.86
2019-04-03T01:40:43.764Z,100441.52
2019-04-03T01:43:16.531Z,100437.59
2019-04-03T01:45:49.409Z,100433.66
2019-04-03T01:48:22.206Z,100431.86
2019-04-03T01:50:55.023Z,100434.91
2019-04-03T01:53:27.842Z,100437.12
2019-04-03T01:56:00.621Z,100431.45
2019-04-03T01:58:34.647Z,100435.83
2019-04-03T02:01:08.557Z,100434.54
2019-04-03T02:03:42.632Z,100428.36
2019-04-03T02:06:15.529Z,100424.88
2019-04-03T02:08:48.549Z,100425.71
2019-04-03T02:11:21.337Z,100418.61
2019-04-03T02:13:54.127Z,100419.97
2019-04-03T02:16:27.005Z,100420.37
2019-04-03T02:18:59.964Z,100415.12
2019-04-03T02:21:32.851Z,100412.94
2019-04-03T02:24:06.475Z,100407.63
2019-04-03T02:26:39.293Z,100406.36
2019-04-03T02:29:12.168Z,100408.02
2019-04-03T02:31:45.343Z,100405.40
2019-04-03T02:34:18.186Z,100403.20
2019-04-03T02:36:51.162Z,100404.11
2019-04-03T02:39:27.394Z,100409.81
2019-04-03T02:41:58.527Z,100406.73
2019-04-03T02:44:31.372Z,100407.62
2019-04-03T02:47:05.562Z,100409.33
2019-04-03T02:49:41.638Z,100402.26
2019-04-03T02:52:13.356Z,100402.73
2019-04-03T02:54:47.136Z,100401.43
2019-04-03T02:57:20.022Z,100400.97
2019-04-03T02:59:53.160Z,100397.92
2019-04-03T03:02:26.055Z,100399.16
2019-04-03T03:04:59.016Z,100393.84
2019-04-03T03:07:35.748Z,100395.16
2019-04-03T03:10:06.791Z,100393.84
2019-04-03T03:12:41.052Z,100395.16
2019-04-03T03:15:15.042Z,100394.26
2019-04-03T03:17:48.572Z,100392.89
2019-04-03T03:20:25.473Z,100395.06
2019-04-03T03:22:59.640Z,100386.73
2019-04-03T03:25:33.809Z,100393.70
2019-04-03T03:28:07.365Z,100395.91
2019-04-03T03:30:46.798Z,100388.42
2019-04-03T03:33:33.644Z,100383.56
2019-04-03T03:35:52.008Z,100383.09
2019-04-03T03:38:27.798Z,100385.17
2019-04-03T03:41:01.047Z,100390.33
2019-04-03T03:43:37.080Z,100386.77
2019-04-03T03:46:09.115Z,100389.34
2019-04-03T03:48:44.866Z,100387.98
2019-04-03T03:51:18.589Z,100383.63
2019-04-03T03:53:52.196Z,100381.91
2019-04-03T03:56:25.288Z,100382.26
2019-04-03T03:58:58.865Z,100381.38
2019-04-03T04:01:32.798Z,100380.49
2019-04-03T04:04:06.002Z,100380.89
2019-04-03T04:06:39.411Z,100370.86
2019-04-03T04:09:15.655Z,100371.65
2019-04-03T04:11:47.464Z,100369.03
2019-04-03T04:14:22.836Z,100368.47
2019-04-03T04:16:55.071Z,100373.73
2019-04-03T04:19:30.516Z,100373.30
2019-04-03T04:22:03.540Z,100374.95
2019-04-03T04:24:36.879Z,100374.86
2019-04-03T04:27:09.735Z,100374.71
2019-04-03T04:29:43.308Z,100379.42
2019-04-03T04:32:16.113Z,100372.34
2019-04-03T04:34:50.221Z,100375.34
2019-04-03T04:37:26.034Z,100376.56
2019-04-03T04:39:59.707Z,100372.11
2019-04-03T04:42:34.359Z,100381.27
2019-04-03T04:45:07.380Z,100373.39
2019-04-03T04:47:40.181Z,100381.20
2019-04-03T04:50:13.195Z,100377.24
2019-04-03T04:52:46.007Z,100382.08
2019-04-03T04:55:20.168Z,100379.89
2019-04-03T04:57:53.195Z,100374.66
2019-04-03T05:00:26.441Z,100384.31
2019-04-03T05:03:02.009Z,100378.66
2019-04-03T05:05:34.982Z,100378.23
2019-04-03T05:08:07.759Z,100374.83
2019-04-03T05:10:40.747Z,100378.33
2019-04-03T05:13:15.863Z,100383.16
2019-04-03T05:15:48.479Z,100374.98
2019-04-03T05:18:21.422Z,100375.08
2019-04-03T05:20:54.242Z,100366.86
2019-04-03T05:23:27.626Z,100379.16
2019-04-03T05:26:01.900Z,100370.11
2019-04-03T05:28:35.317Z,100373.30
2019-04-03T05:31:08.901Z,100378.66
2019-04-03T05:33:42.431Z,100371.36
2019-04-03T05:36:17.728Z,100369.28
2019-04-03T05:38:51.029Z,100361.15
2019-04-03T05:41:27.652Z,100366.08
2019-04-03T05:44:00.097Z,100368.84
2019-04-03T05:46:36.716Z,100364.61
2019-04-03T05:49:10.727Z,100363.41
2019-04-03T05:51:42.526Z,100365.25
2019-04-03T05:54:15.474Z,100361.83
2019-04-03T05:56:51.098Z,100360.19
2019-04-03T05:59:23.158Z,100362.00
2019-04-03T06:01:55.997Z,100364.69
2019-04-03T06:04:28.800Z,100361.73
2019-04-03T06:07:01.908Z,100362.70
2019-04-03T06:09:34.769Z,100372.83
2019-04-03T06:12:09.099Z,100358.06
2019-04-03T06:14:42.377Z,100358.08
2019-04-03T06:17:15.260Z,100352.98
2019-04-03T06:19:49.078Z,100353.03
2019-04-03T06:22:22.192Z,100353.15
2019-04-03T06:24:56.367Z,100352.36
2019-04-03T06:27:29.632Z,100346.75
2019-04-03T06:30:02.915Z,100342.77
2019-04-03T06:32:35.950Z,100343.70
2019-04-03T06:35:08.993Z,100339.78
2019-04-03T06:37:41.787Z,100331.52
2019-04-03T06:40:14.968Z,100325.82
2019-04-03T06:42:47.977Z,100320.56
2019-04-03T06:45:21.844Z,100321.48
2019-04-03T06:47:54.778Z,100317.95
2019-04-03T06:50:27.498Z,100320.59
2019-04-03T06:53:00.258Z,100315.78
2019-04-03T06:55:33.191Z,100317.52
2019-04-03T06:58:07.926Z,100315.36
2019-04-03T07:00:40.715Z,100316.21
2019-04-03T07:03:13.850Z,100314.91
2019-04-03T07:05:46.791Z,100318.81
2019-04-03T07:08:30.110Z,100314.41
2019-04-03T07:10:55.311Z,100303.84
2019-04-03T07:13:29.747Z,100308.59
2019-04-03T07:16:03.118Z,100307.69
2019-04-03T07:18:37.321Z,100308.04
2019-04-03T07:21:10.588Z,100307.50
2019-04-03T07:23:43.815Z,100302.19
2019-04-03T07:26:19.506Z,100302.55
2019-04-03T07:28:55.414Z,100296.78
2019-04-03T07:31:28.499Z,100299.72
2019-04-03T07:34:03.268Z,100290.91
2019-04-03T07:36:36.013Z,100291.23
2019-04-03T07:39:11.179Z,100294.64
2019-04-03T07:41:44.340Z,100295.84
2019-04-03T07:44:17.186Z,100292.63
2019-04-03T07:46:50.135Z,100298.30
2019-04-03T07:49:22.969Z,100291.42
2019-04-03T07:51:55.808Z,100288.62
2019-04-03T07:54:29.004Z,100286.27
2019-04-03T07:57:01.902Z,100285.72
2019-04-03T07:59:35.912Z,100281.98
2019-04-03T08:02:12.093Z,100286.48
2019-04-03T08:04:43.624Z,100285.92
2019-04-03T08:07:16.545Z,100288.39
2019-04-03T08:09:49.525Z,100286.45
2019-04-03T08:12:22.370Z,100284.98
2019-04-03T08:14:55.418Z,100279.52
2019-04-03T08:17:28.317Z,100283.14
2019-04-03T08:20:01.396Z,100285.30
2019-04-03T08:22:34.205Z,100281.58
2019-04-03T08:25:10.694Z,100291.03
2019-04-03T08:27:42.401Z,100282.45
2019-04-03T08:30:16.054Z,100282.64
2019-04-03T08:32:49.317Z,100279.32
2019-04-03T08:35:23.740Z,100277.70
2019-04-03T08:37:57.458Z,100276.65
2019-04-03T08:40:30.261Z,100272.05
2019-04-03T08:43:03.517Z,100276.20
2019-04-03T08:45:38.410Z,100276.69
2019-04-03T08:48:10.833Z,100269.23
2019-04-03T08:50:43.679Z,100270.67
2019-04-03T08:53:16.434Z,100272.11
2019-04-03T08:55:49.628Z,100271.98
2019-04-03T08:58:25.422Z,100262.18
2019-04-03T09:00:57.126Z,100264.13
2019-04-03T09:03:30.136Z,100259.30
2019-04-03T09:06:03.143Z,100256.16
2019-04-03T09:08:36.076Z,100259.08
2019-04-03T09:11:08.964Z,100247.44
2019-04-03T09:13:41.810Z,100244.66
2019-04-03T09:16:14.575Z,100253.27
2019-04-03T09:18:47.515Z,100243.73
2019-04-03T09:21:20.626Z,100233.83
2019-04-03T09:23:55.213Z,100237.98
2019-04-03T09:26:28.210Z,100229.13
2019-04-03T09:29:01.215Z,100227.42
2019-04-03T09:31:34.218Z,100212.67
2019-04-03T09:34:07.048Z,100216.30
2019-04-03T09:36:39.830Z,100205.20
2019-04-03T09:39:14.609Z,100197.70
2019-04-03T09:41:48.861Z,100208.62
2019-04-03T09:44:24.401Z,100206.87
2019-04-03T09:46:57.393Z,100199.44
2019-04-03T09:49:30.184Z,100188.27
2019-04-03T09:52:03.131Z,100200.84
2019-04-03T09:54:36.206Z,100188.20
2019-04-03T09:57:09.030Z,100184.35
2019-04-03T09:59:41.937Z,100183.97
2019-04-03T10:02:14.956Z,100180.65
2019-04-03T10:04:48.889Z,100177.05
2019-04-03T10:07:21.824Z,100175.64
2019-04-03T10:09:54.891Z,100177.44
2019-04-03T10:12:27.990Z,100168.39
2019-04-03T10:15:00.931Z,100165.91
2019-04-03T10:17:35.164Z,100169.69
2019-04-03T10:20:09.513Z,100164.94
2019-04-03T10:22:42.386Z,100161.91
2019-04-03T10:25:15.590Z,100159.39
2019-04-03T10:27:48.916Z,100153.64
2019-04-03T10:30:23.227Z,100152.95
2019-04-03T10:32:56.949Z,100150.19
2019-04-03T10:35:30.648Z,100140.22
2019-04-03T10:38:03.491Z,100129.44
2019-04-03T10:40:36.593Z,100129.00
2019-04-03T10:43:10.786Z,100133.30
2019-04-03T10:45:45.235Z,100125.52
2019-04-03T10:48:18.207Z,100123.33
2019-04-03T10:50:51.126Z,100115.30
2019-04-03T10:53:26.025Z,100117.96
2019-04-03T10:55:59.790Z,100120.94
2019-04-03T10:58:33.480Z,100107.62
2019-04-03T11:01:06.858Z,100114.38
2019-04-03T11:03:40.005Z,100102.08
2019-04-03T11:06:12.970Z,100103.52
2019-04-03T11:08:45.846Z,100108.20
2019-04-03T11:11:19.203Z,100095.44
2019-04-03T11:13:52.163Z,100090.22
2019-04-03T11:16:25.302Z,100086.98
2019-04-03T11:19:02.709Z,100095.09
2019-04-03T11:21:33.060Z,100090.27
2019-04-03T11:24:07.157Z,100082.40
2019-04-03T11:26:40.420Z,100081.38
2019-04-03T11:29:13.810Z,100079.58
2019-04-03T11:31:46.861Z,100082.98
2019-04-03T11:34:19.943Z,100071.91
2019-04-03T11:36:52.763Z,100073.02
2019-04-03T11:39:25.560Z,100064.48
2019-04-03T11:41:58.319Z,100074.98
2019-04-03T11:44:32.577Z,100070.01
2019-04-03T11:47:05.956Z,100070.61
2019-04-03T11:49:39.034Z,100069.43
2019-04-03T11:52:12.076Z,100077.77
2019-04-03T11:54:45.031Z,100067.43
2019-04-03T11:57:18.071Z,100060.80
2019-04-03T11:59:51.241Z,100050.48
2019-04-03T12:02:25.527Z,100065.81
2019-04-03T12:04:58.815Z,100058.59
2019-04-03T12:07:32.036Z,100059.75
2019-04-03T12:10:04.914Z,100041.50
2019-04-03T12:12:38.116Z,100048.71
2019-04-03T12:15:11.933Z,100042.27
2019-04-03T12:17:45.825Z,100045.83
2019-04-03T12:20:18.794Z,100037.58
2019-04-03T12:22:52.011Z,100033.75
2019-04-03T12:25:26.389Z,100039.48
2019-04-03T12:27:59.917Z,100032.23
2019-04-03T12:30:33.799Z,100034.05
2019-04-03T12:33:06.801Z,100029.27
2019-04-03T12:35:42.236Z,100038.98
2019-04-03T12:38:14.127Z,100033.19
2019-04-03T12:40:47.030Z,100029.78
2019-04-03T12:43:19.964Z,100029.59
2019-04-03T12:45:52.760Z,100024.27
2019-04-03T12:48:27.874Z,100009.19
2019-04-03T12:51:00.382Z,100035.09
2019-04-03T12:53:33.525Z,100029.69
2019-04-03T12:56:06.613Z,100016.23
2019-04-03T12:58:39.456Z,100015.98
2019-04-03T13:01:13.419Z,100002.62
2019-04-03T13:03:46.485Z,100002.77
2019-04-03T13:06:19.273Z,99997.83
2019-04-03T13:08:52.162Z,99998.48
2019-04-03T13:11:24.999Z,100002.61
2019-04-03T13:13:59.467Z,99992.26
2019-04-03T13:16:32.504Z,99995.33
2019-04-03T13:19:05.251Z,99989.93
2019-04-03T13:21:39.809Z,100001.09
2019-04-03T13:24:12.770Z,99996.31
2019-04-03T13:26:47.222Z,99992.12
2019-04-03T13:29:21.641Z,100006.16
2019-04-03T13:31:54.989Z,99997.30
2019-04-03T13:34:31.091Z,100010.72
2019-04-03T13:37:03.142Z,100000.28
2019-04-03T13:39:36.087Z,99998.69
2019-04-03T13:42:08.993Z,99996.43
2019-04-03T13:44:41.902Z,99981.72
2019-04-03T13:47:14.799Z,99987.52
2019-04-03T13:49:50.094Z,99996.00
2019-04-03T13:52:22.410Z,99981.97
2019-04-03T13:54:57.721Z,99960.48
2019-04-03T13:57:29.690Z,99982.98
2019-04-03T14:00:16.346Z,99966.67
2019-04-03T14:02:38.742Z,99968.75
2019-04-03T14:05:12.012Z,99971.70
2019-04-03T14:07:48.233Z,99963.08
2019-04-03T14:10:21.024Z,99971.95
2019-04-03T14:12:54.276Z,99965.55
2019-04-03T14:15:27.233Z,99965.41
2019-04-03T14:18:00.035Z,99956.67
2019-04-03T14:20:33.979Z,99946.86
2019-04-03T14:23:06.798Z,99944.06
2019-04-03T14:25:39.853Z,99941.06
2019-04-03T14:28:12.924Z,99949.34
2019-04-03T14:30:47.045Z,99950.92
2019-04-03T14:33:20.293Z,99949.59
2019-04-03T14:35:54.839Z,99946.41
2019-04-03T14:38:31.003Z,99938.31
2019-04-03T14:41:04.654Z,99940.98
2019-04-03T14:43:37.408Z,99923.38
2019-04-03T14:46:10.664Z,99937.12
2019-04-03T14:48:43.729Z,99940.11
2019-04-03T14:51:17.006Z,99942.73
2019-04-03T14:53:51.517Z,99931.50
2019-04-03T14:56:24.291Z,99932.05
2019-04-03T14:58:58.567Z,99934.52
2019-04-03T15:01:31.891Z,99931.97
2019-04-03T15:04:05.071Z,99927.70
2019-04-03T15:06:38.238Z,99927.09
2019-04-03T15:09:13.612Z,99933.05
2019-04-03T15:11:45.977Z,99918.31
2019-04-03T15:14:21.975Z,99911.55
2019-04-03T15:16:53.430Z,99918.42
2019-04-03T15:19:26.207Z,99921.70
2019-04-03T15:22:01.682Z,99953.89
2019-04-03T15:24:34.003Z,99915.15
2019-04-03T15:27:06.882Z,99913.34
2019-04-03T15:29:39.901Z,99923.77
2019-04-03T15:32:13.109Z,99916.13
2019-04-03T15:34:46.062Z,99913.20
2019-04-03T15:37:18.887Z,99903.61
2019-04-03T15:39:56.470Z,99911.00
2019-04-03T15:42:26.329Z,99910.59
2019-04-03T15:44:59.269Z,99910.67
2019-04-03T15:47:37.497Z,99903.33
2019-04-03T15:50:08.773Z,99908.81
2019-04-03T15:52:43.566Z,99902.61
2019-04-03T15:55:16.431Z,99893.38
2019-04-03T15:57:51.729Z,99897.98
2019-04-03T16:00:25.893Z,99898.70
2019-04-03T16:02:59.125Z,99898.76
2019-04-03T16:05:35.671Z,99906.55
2019-04-03T16:08:06.970Z,99888.24
2019-04-03T16:10:39.851Z,99896.03
2019-04-03T16:13:15.566Z,99905.60
2019-04-03T16:15:48.848Z,99897.84
2019-04-03T16:18:22.813Z,99890.10
2019-04-03T16:20:55.957Z,99883.48
2019-04-03T16:23:29.039Z,99899.16
2019-04-03T16:26:02.324Z,99900.59
2019-04-03T16:28:35.766Z,99886.17
2019-04-03T16:31:08.644Z,99883.29
2019-04-03T16:33:41.491Z,99892.34
2019-04-03T16:36:16.531Z,99888.17
2019-04-03T16:38:48.862Z,99896.31
2019-04-03T16:41:22.182Z,99893.42
2019-04-03T16:43:55.504Z,99889.58
2019-04-03T16:46:28.283Z,99890.22
2019-04-03T16:49:01.055Z,99887.89
2019-04-03T16:51:33.849Z,99892.11
2019-04-03T16:54:10.416Z,99886.14
2019-04-03T16:56:41.637Z,99888.19
2019-04-03T16:59:14.780Z,99879.42
2019-04-03T17:01:47.731Z,99882.81
2019-04-03T17:04:26.852Z,99885.78
2019-04-03T17:06:55.704Z,99884.17
2019-04-03T17:09:31.376Z,99878.20
2019-04-03T17:12:03.413Z,99886.26
2019-04-03T17:14:36.472Z,99882.53
2019-04-03T17:17:13.402Z,99876.55
2019-04-03T17:19:44.047Z,99876.14
2019-04-03T17:22:19.128Z,99878.15
2019-04-03T17:24:55.729Z,99871.13
2019-04-03T17:27:29.696Z,99883.67
2019-04-03T17:30:01.215Z,99880.22
2019-04-03T17:32:35.499Z,99879.19
2019-04-03T17:35:08.857Z,99890.90
2019-04-03T17:37:42.380Z,99885.66
2019-04-03T17:40:16.250Z,99896.91
2019-04-03T17:42:49.053Z,99890.43
2019-04-03T17:45:21.866Z,99894.05
2019-04-03T17:47:54.880Z,99898.14
2019-04-03T17:50:29.586Z,99892.20
2019-04-03T17:53:02.353Z,99894.02
2019-04-03T17:55:35.321Z,99903.02
2019-04-03T17:58:08.277Z,99900.82
2019-04-03T18:00:41.067Z,99899.64
2019-04-03T18:03:13.894Z,99902.03
2019-04-03T18:05:47.034Z,99902.98
2019-04-03T18:08:21.024Z,99903.56
2019-04-03T18:10:53.868Z,99897.45
2019-04-03T18:13:27.039Z,99900.22
2019-04-03T18:15:59.926Z,99897.52
2019-04-03T18:18:33.420Z,99902.53
2019-04-03T18:21:06.954Z,99904.92
2019-04-03T18:23:39.887Z,99900.14
2019-04-03T18:26:12.759Z,99889.59
2019-04-03T18:28:45.712Z,99894.17
2019-04-03T18:31:18.608Z,99897.67
2019-04-03T18:33:51.462Z,99901.58
2019-04-03T18:36:27.302Z,99897.74
2019-04-03T18:38:59.063Z,99898.20
2019-04-03T18:41:32.012Z,99896.56
2019-04-03T18:44:05.242Z,99896.67
2019-04-03T18:46:38.072Z,99902.47
2019-04-03T18:49:10.961Z,99895.00
2019-04-03T18:51:43.976Z,99897.77
2019-04-03T18:54:17.147Z,99898.81
2019-04-03T18:56:50.178Z,99892.18
2019-04-03T18:59:23.949Z,99905.52
2019-04-03T19:01:57.970Z,99899.03
2019-04-03T19:04:33.966Z,99893.34
2019-04-03T19:07:06.815Z,99899.52
2019-04-03T19:09:40.902Z,99894.70
2019-04-03T19:12:15.620Z,99902.13
2019-04-03T19:14:48.863Z,99895.22
2019-04-03T19:17:22.953Z,99899.69
2019-04-03T19:20:09.674Z,99894.63
2019-04-03T19:22:30.966Z,99901.81
2019-04-03T19:25:03.920Z,99905.38
2019-04-03T19:27:36.903Z,99912.88
2019-04-03T19:30:10.227Z,99903.70
2019-04-03T19:32:43.962Z,99910.89
2019-04-03T19:35:17.144Z,99900.45
2019-04-03T19:37:50.157Z,99903.48
2019-04-03T19:40:23.317Z,99906.34
2019-04-03T19:42:56.331Z,99899.84
2019-04-03T19:45:29.463Z,99900.71
2019-04-03T19:48:02.591Z,99897.25
2019-04-03T19:50:35.537Z,99907.11
2019-04-03T19:53:08.686Z,99901.07
2019-04-03T19:55:41.644Z,99902.07
2019-04-03T19:58:15.797Z,99903.49
2019-04-03T20:00:49.427Z,99902.62
2019-04-03T20:03:23.395Z,99905.78
2019-04-03T20:05:56.353Z,99900.64
2019-04-03T20:08:30.523Z,99903.90
2019-04-03T20:11:05.095Z,99905.80
2019-04-03T20:13:39.834Z,99904.51
2019-04-03T20:16:14.377Z,99900.56
2019-04-03T20:18:47.320Z,99899.33
2019-04-03T20:21:20.793Z,99901.61
2019-04-03T20:23:54.732Z,99895.98
2019-04-03T20:26:29.649Z,99896.98
2019-04-03T20:29:04.448Z,99903.75
2019-04-03T20:31:40.565Z,99901.58
2019-04-03T20:34:13.082Z,99901.16
2019-04-03T20:36:46.571Z,99896.34
2019-04-03T20:39:19.383Z,99898.54
2019-04-03T20:41:52.372Z,99899.95
2019-04-03T20:44:25.278Z,99906.18
2019-04-03T20:46:58.273Z,99902.75
2019-04-03T20:49:31.096Z,99898.27
2019-04-03T20:52:03.994Z,99905.84
2019-04-03T20:54:36.873Z,99899.84
2019-04-03T20:57:09.806Z,99902.95
2019-04-03T20:59:43.097Z,99906.58
2019-04-03T21:02:17.380Z,99903.17
2019-04-03T21:04:50.354Z,99904.08
2019-04-03T21:07:24.481Z,99903.70
2019-04-03T21:10:00.637Z,99906.02
2019-04-03T21:12:35.502Z,99905.27
2019-04-03T21:15:09.486Z,99902.20
2019-04-03T21:17:43.087Z,99907.16
2019-04-03T21:20:16.247Z,99905.01
2019-04-03T21:22:49.028Z,99910.39
2019-04-03T21:25:21.940Z,99911.31
2019-04-03T21:27:54.885Z,99901.28
2019-04-03T21:30:27.652Z,99900.54
2019-04-03T21:33:00.553Z,99900.75
2019-04-03T21:35:35.202Z,99899.02
2019-04-03T21:38:10.599Z,99892.52
2019-04-03T21:40:42.453Z,99896.91
2019-04-03T21:43:15.674Z,99891.87
2019-04-03T21:45:48.578Z,99891.02
2019-04-03T21:48:21.469Z,99899.38
2019-04-03T21:50:54.231Z,99905.64
2019-04-03T21:53:27.000Z,99902.15
2019-04-03T21:56:01.822Z,99910.16
2019-04-03T21:58:34.321Z,99908.86
2019-04-03T22:01:35.701Z,99911.99
2019-04-03T22:04:08.598Z,99913.84
2019-04-03T22:06:41.393Z,99901.63
2019-04-03T22:09:14.568Z,99902.50
2019-04-03T22:11:47.502Z,99900.31
2019-04-03T22:14:20.335Z,99899.08
2019-04-03T22:16:53.088Z,99896.92
2019-04-03T22:19:27.695Z,99895.70
2019-04-03T22:22:01.074Z,99898.00
2019-04-03T22:24:37.412Z,99899.33
2019-04-03T22:27:11.306Z,99895.83
2019-04-03T22:29:43.939Z,99898.12
2019-04-03T22:32:16.731Z,99903.94
2019-04-03T22:34:49.522Z,99897.02
2019-04-03T22:37:22.319Z,99896.16
2019-04-03T22:39:55.638Z,99899.69
2019-04-03T22:42:28.474Z,99900.62
2019-04-03T22:45:02.572Z,99906.81
2019-04-03T22:47:36.735Z,99910.36
2019-04-03T22:50:09.917Z,99906.57
2019-04-03T22:52:42.756Z,99906.16
2019-04-03T22:55:15.594Z,99902.63
2019-04-03T22:57:50.394Z,99903.59
2019-04-03T23:00:23.924Z,99901.41
2019-04-03T23:02:57.541Z,99896.57
2019-04-03T23:05:30.310Z,99898.41
2019-04-03T23:08:03.333Z,99892.27
2019-04-03T23:10:36.389Z,99893.59
2019-04-03T23:13:09.392Z,99896.69
2019-04-03T23:15:42.450Z,99897.22
2019-04-03T23:18:15.980Z,99898.59
2019-04-03T23:20:49.245Z,99896.88
2019-04-03T23:23:22.130Z,99889.95
2019-04-03T23:25:54.911Z,99886.94
2019-04-03T23:28:30.207Z,99879.47
2019-04-03T23:31:03.222Z,99881.68
2019-04-03T23:33:36.344Z,99869.89
2019-04-03T23:36:09.354Z,99873.95
2019-04-03T23:38:42.164Z,99871.30
2019-04-03T23:41:15.072Z,99873.07
2019-04-03T23:43:47.879Z,99873.09
2019-04-03T23:46:20.891Z,99869.11
2019-04-03T23:48:53.773Z,99866.09
2019-04-03T23:51:27.913Z,99862.53
2019-04-03T23:54:02.643Z,99861.69
2019-04-03T23:56:37.012Z,99862.59
2019-04-03T23:59:12.685Z,99856.87
